createdAt,value
2019-02-24T00:02:22.739Z,13.33
2019-02-24T00:04:56.039Z,12.63
2019-02-24T00:07:29.357Z,13.23
2019-02-24T00:10:02.810Z,13.80
2019-02-24T00:12:36.138Z,12.30
2019-02-24T00:15:09.488Z,13.00
2019-02-24T00:17:42.883Z,13.07
2019-02-24T00:20:16.177Z,14.10
2019-02-24T00:22:49.478Z,12.53
2019-02-24T00:25:22.783Z,12.93
2019-02-24T00:27:56.071Z,11.60
2019-02-24T00:30:29.358Z,12.30
2019-02-24T00:33:02.813Z,12.40
2019-02-24T00:35:36.145Z,13.10
2019-02-24T00:38:09.437Z,11.80
2019-02-24T00:40:42.744Z,11.30
2019-02-24T00:43:16.036Z,11.30
2019-02-24T00:45:49.326Z,10.90
2019-02-24T00:48:22.633Z,10.47
2019-02-24T00:50:55.918Z,10.73
2019-02-24T00:53:29.222Z,10.80
2019-02-24T00:56:02.519Z,11.70
2019-02-24T00:58:35.818Z,11.30
2019-02-24T01:01:09.115Z,10.80
2019-02-24T01:03:42.418Z,10.57
2019-02-24T01:06:15.717Z,11.00
2019-02-24T01:08:49.013Z,11.70
2019-02-24T01:11:22.304Z,11.60
2019-02-24T01:13:55.608Z,11.67
2019-02-24T01:16:28.902Z,12.50
2019-02-24T01:19:02.208Z,11.90
2019-02-24T01:21:35.528Z,12.17
2019-02-24T01:24:08.838Z,9.87
2019-02-24T01:26:42.117Z,10.57
2019-02-24T01:29:15.434Z,10.00
2019-02-24T01:31:48.721Z,9.57
2019-02-24T01:34:22.017Z,9.57
2019-02-24T01:36:55.318Z,9.20
2019-02-24T01:39:28.618Z,7.93
2019-02-24T01:42:01.914Z,8.50
2019-02-24T01:44:35.217Z,7.73
2019-02-24T01:47:08.514Z,7.63
2019-02-24T01:49:41.867Z,7.77
2019-02-24T01:52:15.150Z,7.43
2019-02-24T01:54:48.449Z,7.70
2019-02-24T01:57:21.731Z,7.50
2019-02-24T01:59:55.017Z,7.50
2019-02-24T02:02:28.301Z,8.47
2019-02-24T02:05:01.591Z,9.30
2019-02-24T02:07:34.885Z,9.20
2019-02-24T02:10:08.257Z,9.43
2019-02-24T02:12:41.538Z,8.67
2019-02-24T02:15:14.912Z,8.37
2019-02-24T02:17:48.198Z,7.97
2019-02-24T02:20:21.495Z,8.50
2019-02-24T02:22:54.780Z,8.20
2019-02-24T02:25:28.157Z,8.87
2019-02-24T02:28:01.456Z,12.47
2019-02-24T02:30:34.768Z,12.57
2019-02-24T02:33:08.072Z,12.97
2019-02-24T02:35:41.405Z,7.60
2019-02-24T02:38:14.690Z,8.03
2019-02-24T02:40:48.002Z,7.63
2019-02-24T02:43:21.288Z,8.50
2019-02-24T02:45:54.617Z,8.60
2019-02-24T02:48:27.900Z,8.00
2019-02-24T02:51:01.206Z,8.23
2019-02-24T02:53:34.483Z,8.10
2019-02-24T02:56:07.868Z,8.13
2019-02-24T02:58:41.148Z,8.50
2019-02-24T03:01:14.461Z,9.00
2019-02-24T03:03:47.735Z,8.50
2019-02-24T03:06:22.676Z,7.27
2019-02-24T03:08:55.979Z,6.57
2019-02-24T03:11:29.246Z,7.43
2019-02-24T03:14:02.556Z,8.10
2019-02-24T03:16:35.843Z,7.73
2019-02-24T03:19:09.130Z,8.47
2019-02-24T03:21:42.430Z,7.50
2019-02-24T03:24:15.730Z,7.80
2019-02-24T03:26:49.031Z,8.70
2019-02-24T03:29:22.321Z,8.20
2019-02-24T03:31:55.625Z,8.83
2019-02-24T03:34:28.911Z,8.20
2019-02-24T03:37:02.217Z,8.20
2019-02-24T03:39:35.512Z,8.23
2019-02-24T03:42:08.784Z,8.33
2019-02-24T03:44:42.086Z,8.17
2019-02-24T03:47:15.383Z,8.87
2019-02-24T03:49:48.682Z,7.87
2019-02-24T03:52:21.947Z,7.73
2019-02-24T03:54:55.266Z,7.90
2019-02-24T03:57:28.533Z,7.77
2019-02-24T04:00:01.902Z,8.27
2019-02-24T04:02:35.190Z,7.60
2019-02-24T04:05:08.493Z,8.07
2019-02-24T04:07:41.790Z,7.93
2019-02-24T04:10:15.092Z,7.33
2019-02-24T04:12:48.394Z,6.60
2019-02-24T04:15:21.759Z,6.00
2019-02-24T04:17:55.032Z,6.73
2019-02-24T04:20:28.329Z,5.90
2019-02-24T04:23:01.632Z,5.50
2019-02-24T04:25:34.937Z,4.30
2019-02-24T04:28:08.234Z,5.60
2019-02-24T04:30:41.595Z,5.80
2019-02-24T04:33:14.878Z,5.90
2019-02-24T04:35:48.182Z,6.60
2019-02-24T04:38:21.513Z,5.60
2019-02-24T04:40:54.775Z,5.33
2019-02-24T04:43:28.058Z,5.73
2019-02-24T04:46:01.350Z,5.53
2019-02-24T04:48:34.633Z,5.57
2019-02-24T04:51:07.939Z,5.70
2019-02-24T04:53:41.215Z,6.07
2019-02-24T04:56:14.526Z,5.67
2019-02-24T04:58:47.832Z,6.00
2019-02-24T05:01:21.125Z,6.37
2019-02-24T05:03:54.411Z,5.70
2019-02-24T05:06:27.797Z,5.43
2019-02-24T05:09:01.071Z,5.90
2019-02-24T05:11:34.375Z,5.57
2019-02-24T05:14:07.650Z,5.83
2019-02-24T05:16:40.954Z,5.70
2019-02-24T05:19:14.262Z,5.47
2019-02-24T05:21:47.567Z,5.23
2019-02-24T05:24:20.847Z,6.07
2019-02-24T05:26:54.159Z,5.37
2019-02-24T05:29:27.443Z,5.90
2019-02-24T05:32:00.770Z,5.80
2019-02-24T05:34:34.046Z,5.90
2019-02-24T05:37:07.343Z,5.10
2019-02-24T05:39:40.630Z,5.83
2019-02-24T05:42:15.578Z,5.43
2019-02-24T05:44:48.897Z,5.80
2019-02-24T05:47:22.165Z,5.70
2019-02-24T05:49:55.462Z,6.17
2019-02-24T05:52:28.756Z,5.17
2019-02-24T05:55:02.047Z,6.77
2019-02-24T05:57:35.378Z,6.50
2019-02-24T06:00:08.655Z,5.73
2019-02-24T06:02:41.958Z,5.23
2019-02-24T06:05:15.260Z,5.30
2019-02-24T06:07:48.560Z,5.73
2019-02-24T06:10:21.829Z,5.57
2019-02-24T06:12:55.133Z,5.30
2019-02-24T06:15:28.431Z,5.10
2019-02-24T06:18:01.730Z,5.20
2019-02-24T06:20:35.018Z,5.80
2019-02-24T06:23:08.308Z,5.80
2019-02-24T06:25:41.582Z,6.50
2019-02-24T06:28:14.895Z,5.83
2019-02-24T06:30:48.179Z,5.87
2019-02-24T06:33:21.498Z,5.90
2019-02-24T06:35:54.809Z,5.93
2019-02-24T06:38:28.111Z,6.60
2019-02-24T06:41:01.406Z,6.90
2019-02-24T06:43:34.734Z,5.70
2019-02-24T06:46:07.998Z,5.67
2019-02-24T06:48:41.271Z,5.77
2019-02-24T06:51:15.042Z,5.83
2019-02-24T06:53:48.351Z,5.90
2019-02-24T06:56:21.675Z,6.00
2019-02-24T06:58:54.963Z,6.00
2019-02-24T07:01:28.273Z,7.63
2019-02-24T07:04:01.554Z,9.67
2019-02-24T07:06:34.843Z,9.27
2019-02-24T07:09:08.194Z,10.30
2019-02-24T07:11:41.486Z,9.80
2019-02-24T07:14:14.775Z,9.07
2019-02-24T07:16:48.089Z,10.10
2019-02-24T07:19:21.388Z,9.70
2019-02-24T07:21:54.722Z,9.80
2019-02-24T07:24:27.992Z,7.93
2019-02-24T07:27:02.031Z,7.27
2019-02-24T07:29:35.342Z,7.37
2019-02-24T07:32:08.678Z,7.40
2019-02-24T07:34:41.965Z,6.83
2019-02-24T07:37:15.258Z,6.73
2019-02-24T07:39:48.574Z,8.67
2019-02-24T07:42:21.889Z,7.67
2019-02-24T07:44:55.167Z,6.57
2019-02-24T07:47:28.478Z,6.97
2019-02-24T07:50:01.832Z,6.80
2019-02-24T07:52:35.145Z,6.50
2019-02-24T07:55:08.499Z,6.23
2019-02-24T07:57:41.781Z,6.47
2019-02-24T08:00:15.064Z,6.73
2019-02-24T08:02:48.363Z,6.33
2019-02-24T08:05:21.666Z,6.77
2019-02-24T08:07:54.966Z,5.97
2019-02-24T08:10:28.247Z,5.50
2019-02-24T08:13:01.553Z,6.53
2019-02-24T08:15:34.834Z,5.93
2019-02-24T08:18:08.130Z,6.20
2019-02-24T08:20:41.401Z,5.70
2019-02-24T08:23:14.703Z,6.50
2019-02-24T08:25:47.979Z,5.73
2019-02-24T08:28:21.289Z,5.80
2019-02-24T08:30:54.574Z,5.93
2019-02-24T08:33:27.889Z,5.70
2019-02-24T08:36:01.182Z,7.33
2019-02-24T08:38:34.488Z,7.07
2019-02-24T08:41:07.763Z,6.37
2019-02-24T08:43:41.077Z,6.63
2019-02-24T08:46:14.539Z,6.00
2019-02-24T08:48:47.868Z,6.60
2019-02-24T08:51:23.238Z,6.60
2019-02-24T08:53:56.222Z,6.03
2019-02-24T08:56:29.538Z,5.80
2019-02-24T08:59:02.812Z,6.13
2019-02-24T09:01:36.215Z,5.33
2019-02-24T09:04:09.493Z,6.63
2019-02-24T09:06:42.800Z,6.40
2019-02-24T09:09:16.107Z,6.30
2019-02-24T09:11:49.425Z,6.30
2019-02-24T09:14:22.703Z,6.60
2019-02-24T09:16:55.993Z,5.90
2019-02-24T09:19:29.288Z,6.00
2019-02-24T09:22:02.605Z,6.20
2019-02-24T09:24:35.883Z,6.60
2019-02-24T09:27:09.198Z,5.73
2019-02-24T09:29:42.561Z,5.70
2019-02-24T09:32:15.940Z,5.73
2019-02-24T09:34:49.213Z,6.63
2019-02-24T09:37:22.498Z,6.03
2019-02-24T09:39:55.784Z,6.30
2019-02-24T09:42:29.093Z,6.07
2019-02-24T09:45:02.394Z,5.77
2019-02-24T09:47:35.677Z,5.53
2019-02-24T09:50:09.896Z,5.77
2019-02-24T09:52:43.205Z,5.03
2019-02-24T09:55:16.527Z,5.10
2019-02-24T09:57:49.835Z,5.00
2019-02-24T10:00:23.108Z,5.17
2019-02-24T10:02:57.581Z,5.00
2019-02-24T10:05:31.167Z,4.77
2019-02-24T10:08:04.471Z,5.07
2019-02-24T10:10:37.796Z,4.63
2019-02-24T10:13:11.146Z,4.70
2019-02-24T10:15:44.430Z,4.60
2019-02-24T10:18:17.735Z,3.77
2019-02-24T10:20:51.028Z,4.00
2019-02-24T10:23:24.303Z,4.87
2019-02-24T10:25:57.583Z,4.43
2019-02-24T10:28:30.883Z,4.43
2019-02-24T10:31:04.182Z,4.73
2019-02-24T10:33:37.498Z,4.13
2019-02-24T10:36:10.785Z,3.67
2019-02-24T10:38:44.123Z,4.00
2019-02-24T10:41:17.387Z,4.23
2019-02-24T10:43:50.745Z,4.00
2019-02-24T10:46:24.147Z,4.07
2019-02-24T10:49:03.432Z,3.97
2019-02-24T10:51:32.481Z,4.27
2019-02-24T10:54:05.859Z,3.97
2019-02-24T10:56:39.145Z,3.57
2019-02-24T10:59:12.536Z,4.00
2019-02-24T11:01:45.815Z,3.80
2019-02-24T11:04:19.115Z,3.43
2019-02-24T11:06:52.435Z,3.23
2019-02-24T11:09:25.756Z,3.90
2019-02-24T11:11:59.066Z,2.83
2019-02-24T11:14:32.360Z,3.93
2019-02-24T11:17:05.626Z,3.67
2019-02-24T11:19:38.925Z,3.37
2019-02-24T11:22:12.243Z,3.03
2019-02-24T11:24:45.516Z,3.30
2019-02-24T11:27:18.802Z,3.50
2019-02-24T11:29:52.090Z,3.13
2019-02-24T11:32:25.387Z,3.63
2019-02-24T11:34:58.689Z,3.57
2019-02-24T11:37:32.498Z,3.60
2019-02-24T11:40:09.276Z,3.70
2019-02-24T11:42:42.566Z,3.90
2019-02-24T11:45:15.867Z,3.70
2019-02-24T11:47:49.169Z,3.30
2019-02-24T11:50:22.482Z,4.20
2019-02-24T11:52:55.792Z,4.00
2019-02-24T11:55:29.081Z,4.03
2019-02-24T11:58:02.408Z,4.17
2019-02-24T12:00:35.695Z,4.40
2019-02-24T12:03:08.999Z,4.50
2019-02-24T12:05:42.789Z,3.60
2019-02-24T12:08:16.090Z,3.87
2019-02-24T12:10:49.449Z,4.00
2019-02-24T12:13:22.730Z,3.40
2019-02-24T12:15:56.009Z,4.03
2019-02-24T12:18:29.300Z,3.83
2019-02-24T12:21:02.629Z,3.53
2019-02-24T12:23:35.920Z,3.90
2019-02-24T12:26:09.212Z,4.03
2019-02-24T12:28:42.519Z,4.17
2019-02-24T12:31:15.855Z,3.57
2019-02-24T12:33:49.156Z,4.03
2019-02-24T12:36:22.512Z,3.40
2019-02-24T12:38:55.800Z,3.73
2019-02-24T12:41:29.094Z,3.90
2019-02-24T12:44:02.465Z,3.97
2019-02-24T12:46:35.764Z,3.83
2019-02-24T12:49:09.081Z,3.80
2019-02-24T12:51:42.434Z,3.27
2019-02-24T12:54:15.726Z,3.73
2019-02-24T12:56:49.023Z,3.60
2019-02-24T12:59:22.339Z,3.93
2019-02-24T13:01:55.613Z,2.23
2019-02-24T13:04:29.042Z,3.37
2019-02-24T13:07:02.302Z,3.90
2019-02-24T13:09:35.601Z,4.20
2019-02-24T13:12:08.891Z,4.20
2019-02-24T13:14:42.209Z,3.27
2019-02-24T13:17:15.474Z,3.50
2019-02-24T13:19:48.766Z,3.83
2019-02-24T13:22:22.062Z,3.93
2019-02-24T13:24:55.450Z,3.40
2019-02-24T13:27:28.755Z,4.03
2019-02-24T13:30:02.127Z,3.73
2019-02-24T13:32:35.408Z,3.90
2019-02-24T13:35:09.276Z,3.87
2019-02-24T13:37:42.609Z,3.30
2019-02-24T13:40:16.776Z,3.50
2019-02-24T13:42:50.076Z,3.20
2019-02-24T13:45:23.950Z,3.33
2019-02-24T13:47:57.254Z,3.70
2019-02-24T13:50:30.575Z,3.63
2019-02-24T13:53:03.881Z,3.33
2019-02-24T13:55:37.211Z,3.00
2019-02-24T13:58:10.497Z,3.27
2019-02-24T14:00:43.789Z,3.00
2019-02-24T14:03:17.137Z,3.43
2019-02-24T14:05:50.448Z,3.57
2019-02-24T14:08:23.733Z,3.70
2019-02-24T14:10:57.058Z,3.50
2019-02-24T14:13:30.358Z,3.60
2019-02-24T14:16:03.645Z,3.60
2019-02-24T14:18:36.929Z,3.10
2019-02-24T14:21:10.202Z,2.90
2019-02-24T14:23:44.396Z,3.00
2019-02-24T14:26:19.678Z,3.13
2019-02-24T14:28:52.681Z,3.07
2019-02-24T14:31:25.963Z,3.37
2019-02-24T14:33:59.251Z,3.33
2019-02-24T14:36:32.553Z,4.10
2019-02-24T14:39:06.079Z,3.30
2019-02-24T14:41:39.361Z,3.60
2019-02-24T14:44:12.847Z,2.90
2019-02-24T14:46:46.130Z,3.10
2019-02-24T14:49:19.492Z,3.70
2019-02-24T14:51:52.794Z,3.13
2019-02-24T14:54:26.112Z,3.60
2019-02-24T14:56:59.416Z,3.30
2019-02-24T14:59:32.731Z,4.90
2019-02-24T15:02:06.080Z,3.50
2019-02-24T15:04:39.367Z,3.17
2019-02-24T15:07:12.649Z,4.20
2019-02-24T15:09:45.943Z,3.10
2019-02-24T15:12:19.241Z,3.13
2019-02-24T15:14:52.608Z,3.00
2019-02-24T15:17:25.920Z,3.00
2019-02-24T15:19:59.271Z,3.07
2019-02-24T15:22:32.623Z,2.80
2019-02-24T15:25:11.505Z,3.00
2019-02-24T15:27:44.832Z,3.20
2019-02-24T15:30:32.345Z,3.10
2019-02-24T15:33:05.726Z,3.00
2019-02-24T15:35:39.110Z,3.13
2019-02-24T15:38:12.431Z,3.27
2019-02-24T15:40:45.737Z,3.00
2019-02-24T15:43:19.022Z,3.03
2019-02-24T15:45:52.329Z,2.77
2019-02-24T15:48:25.595Z,2.70
2019-02-24T15:50:58.896Z,3.93
2019-02-24T15:53:32.216Z,3.30
2019-02-24T15:56:05.524Z,2.93
2019-02-24T15:58:38.838Z,3.73
2019-02-24T16:01:12.216Z,3.80
2019-02-24T16:03:45.498Z,3.80
2019-02-24T16:06:18.819Z,3.30
2019-02-24T16:08:52.117Z,3.00
2019-02-24T16:11:25.408Z,4.20
2019-02-24T16:13:58.701Z,4.60
2019-02-24T16:16:32.005Z,3.73
2019-02-24T16:19:05.289Z,3.50
2019-02-24T16:21:38.613Z,4.07
2019-02-24T16:24:11.997Z,3.80
2019-02-24T16:26:45.299Z,3.70
2019-02-24T16:29:18.594Z,3.33
2019-02-24T16:31:51.904Z,3.03
2019-02-24T16:34:25.189Z,3.33
2019-02-24T16:36:58.494Z,3.10
2019-02-24T16:39:31.783Z,2.53
2019-02-24T16:42:05.082Z,3.17
2019-02-24T16:44:38.387Z,3.10
2019-02-24T16:47:11.691Z,3.20
2019-02-24T16:49:45.005Z,3.33
2019-02-24T16:52:18.332Z,6.53
2019-02-24T16:54:52.872Z,6.00
2019-02-24T16:57:26.393Z,7.20
2019-02-24T16:59:59.704Z,6.20
2019-02-24T17:02:33.030Z,4.03
2019-02-24T17:05:07.473Z,3.73
2019-02-24T17:07:40.782Z,3.20
2019-02-24T17:10:21.275Z,3.07
2019-02-24T17:12:54.547Z,3.17
2019-02-24T17:15:27.918Z,3.70
2019-02-24T17:18:01.247Z,3.80
2019-02-24T17:20:34.571Z,7.13
2019-02-24T17:23:07.863Z,3.73
2019-02-24T17:25:41.166Z,3.10
2019-02-24T17:28:14.548Z,3.40
2019-02-24T17:30:48.119Z,3.90
2019-02-24T17:33:29.772Z,4.00
2019-02-24T17:35:56.459Z,4.30
2019-02-24T17:38:29.743Z,9.23
2019-02-24T17:41:03.057Z,7.73
2019-02-24T17:43:36.376Z,6.60
2019-02-24T17:46:09.747Z,5.17
2019-02-24T17:48:43.086Z,7.07
2019-02-24T17:51:21.254Z,5.23
2019-02-24T17:53:51.435Z,5.10
2019-02-24T17:56:25.694Z,4.40
2019-02-24T17:58:59.076Z,4.57
2019-02-24T18:01:32.372Z,4.80
2019-02-24T18:04:05.661Z,5.17
2019-02-24T18:06:38.988Z,4.43
2019-02-24T18:09:12.262Z,4.30
2019-02-24T18:11:45.679Z,4.53
2019-02-24T18:14:19.080Z,4.53
2019-02-24T18:16:52.411Z,4.67
2019-02-24T18:19:25.770Z,4.60
2019-02-24T18:21:59.218Z,3.43
2019-02-24T18:24:32.561Z,4.40
2019-02-24T18:27:06.076Z,3.17
2019-02-24T18:29:39.349Z,3.50
2019-02-24T18:32:13.472Z,3.67
2019-02-24T18:34:46.786Z,3.20
2019-02-24T18:37:20.064Z,2.83
2019-02-24T18:39:53.335Z,6.17
2019-02-24T18:42:26.764Z,5.60
2019-02-24T18:45:00.345Z,6.30
2019-02-24T18:47:33.604Z,7.70
2019-02-24T18:50:10.117Z,8.80
2019-02-24T18:52:43.498Z,6.87
2019-02-24T18:55:16.864Z,6.70
2019-02-24T18:57:50.233Z,5.50
2019-02-24T19:00:24.002Z,5.57
2019-02-24T19:02:57.301Z,5.63
2019-02-24T19:05:30.602Z,5.90
2019-02-24T19:08:04.046Z,5.10
2019-02-24T19:10:37.340Z,4.80
2019-02-24T19:13:11.600Z,4.90
2019-02-24T19:15:44.984Z,4.90
2019-02-24T19:18:18.259Z,4.50
2019-02-24T19:20:51.567Z,5.17
2019-02-24T19:23:24.864Z,4.70
2019-02-24T19:25:58.173Z,5.20
2019-02-24T19:28:31.486Z,5.50
2019-02-24T19:31:04.758Z,5.40
2019-02-24T19:33:38.120Z,5.43
2019-02-24T19:36:11.429Z,5.03
2019-02-24T19:38:45.283Z,4.70
2019-02-24T19:41:18.603Z,4.40
2019-02-24T19:43:51.927Z,3.60
2019-02-24T19:46:25.226Z,3.70
2019-02-24T19:48:58.554Z,3.40
2019-02-24T19:51:31.856Z,3.00
2019-02-24T19:54:05.164Z,3.33
2019-02-24T19:56:38.516Z,3.67
2019-02-24T19:59:11.834Z,3.17
2019-02-24T20:01:45.237Z,3.00
2019-02-24T20:04:18.533Z,3.20
2019-02-24T20:06:51.862Z,3.10
2019-02-24T20:09:25.148Z,3.43
2019-02-24T20:11:58.446Z,3.57
2019-02-24T20:14:31.815Z,3.40
2019-02-24T20:17:05.080Z,3.77
2019-02-24T20:19:38.386Z,4.13
2019-02-24T20:22:11.732Z,3.53
2019-02-24T20:24:45.023Z,3.90
2019-02-24T20:27:18.315Z,4.80
2019-02-24T20:29:51.609Z,5.57
2019-02-24T20:32:24.914Z,6.20
2019-02-24T20:34:58.211Z,6.80
2019-02-24T20:37:31.540Z,6.63
2019-02-24T20:40:07.442Z,6.10
2019-02-24T20:42:40.746Z,5.80
2019-02-24T20:45:19.249Z,5.93
2019-02-24T20:47:52.726Z,5.50
2019-02-24T20:50:31.543Z,5.57
2019-02-24T20:53:05.200Z,5.67
2019-02-24T20:55:38.489Z,5.53
2019-02-24T20:58:11.859Z,6.77
2019-02-24T21:00:47.968Z,7.00
2019-02-24T21:03:22.627Z,7.47
2019-02-24T21:05:55.969Z,9.10
2019-02-24T21:08:29.280Z,8.33
2019-02-24T21:11:02.606Z,7.03
2019-02-24T21:13:35.922Z,7.40
2019-02-24T21:16:09.278Z,7.07
2019-02-24T21:18:42.663Z,7.50
2019-02-24T21:21:15.961Z,7.93
2019-02-24T21:23:49.334Z,8.03
2019-02-24T21:26:22.616Z,14.10
2019-02-24T21:28:55.993Z,9.97
2019-02-24T21:31:29.269Z,8.97
2019-02-24T21:34:02.590Z,7.73
2019-02-24T21:36:35.860Z,7.23
2019-02-24T21:39:09.304Z,6.97
2019-02-24T21:41:42.594Z,6.50
2019-02-24T21:44:15.888Z,6.70
2019-02-24T21:46:49.229Z,6.97
2019-02-24T21:49:22.541Z,7.43
2019-02-24T21:51:55.812Z,7.33
2019-02-24T21:54:29.190Z,7.23
2019-02-24T21:57:02.461Z,7.50
2019-02-24T21:59:37.236Z,8.50
2019-02-24T22:02:10.584Z,8.30
2019-02-24T22:04:43.970Z,8.80
2019-02-24T22:07:17.243Z,7.67
2019-02-24T22:09:50.568Z,8.00
2019-02-24T22:12:23.858Z,8.07
2019-02-24T22:14:57.152Z,7.90
2019-02-24T22:17:30.460Z,6.50
2019-02-24T22:20:05.094Z,7.03
2019-02-24T22:22:38.357Z,6.23
2019-02-24T22:25:13.124Z,7.03
2019-02-24T22:27:46.398Z,6.60
2019-02-24T22:30:21.603Z,6.47
2019-02-24T22:32:54.867Z,7.10
2019-02-24T22:35:28.152Z,5.90
2019-02-24T22:38:01.424Z,6.47
2019-02-24T22:40:34.728Z,6.40
2019-02-24T22:43:08.005Z,6.70
2019-02-24T22:45:41.281Z,6.70
2019-02-24T22:48:14.539Z,7.00
2019-02-24T22:50:47.815Z,6.87
2019-02-24T22:53:21.079Z,6.73
2019-02-24T22:55:54.377Z,6.90
2019-02-24T22:58:27.630Z,6.53
2019-02-24T23:01:04.612Z,6.10
2019-02-24T23:03:38.347Z,6.10
2019-02-24T23:06:11.682Z,5.80
2019-02-24T23:08:45.008Z,6.63
2019-02-24T23:11:18.293Z,5.63
2019-02-24T23:13:51.594Z,5.57
2019-02-24T23:16:24.858Z,5.97
2019-02-24T23:18:58.160Z,5.77
2019-02-24T23:21:31.419Z,5.60
2019-02-24T23:24:04.766Z,5.07
2019-02-24T23:26:38.069Z,5.30
2019-02-24T23:29:11.329Z,5.67
2019-02-24T23:31:44.622Z,5.03
2019-02-24T23:34:17.904Z,5.27
2019-02-24T23:36:51.175Z,4.77
2019-02-24T23:39:24.519Z,4.67
2019-02-24T23:41:57.800Z,5.03
2019-02-24T23:44:31.141Z,5.13
2019-02-24T23:47:04.438Z,5.00
2019-02-24T23:49:37.741Z,4.80
2019-02-24T23:52:11.021Z,6.20
2019-02-24T23:54:44.299Z,5.50
2019-02-24T23:57:17.583Z,6.60
2019-02-24T23:59:50.868Z,5.90
